sensor_id;sensor_type;location;lat;lon;timestamp;pressure;altitude;pressure_sealevel;temperature;humidity
69173;BME280;56280;49.662;8.408;2023-04-15T00:00:33;99814.09;;;6.75;74.74
69173;BME280;56280;49.662;8.408;2023-04-15T00:02:58;99787.94;;;6.36;75.63
69173;BME280;56280;49.662;8.408;2023-04-15T00:05:24;99833.00;;;6.09;77.65
69173;BME280;56280;49.662;8.408;2023-04-15T00:07:49;99809.22;;;5.98;78.78
69173;BME280;56280;49.662;8.408;2023-04-15T00:10:15;99809.34;;;6.20;78.97
69173;BME280;56280;49.662;8.408;2023-04-15T00:12:40;99819.72;;;6.35;77.61
69173;BME280;56280;49.662;8.408;2023-04-15T00:15:06;99812.59;;;6.00;79.28
69173;BME280;56280;49.662;8.408;2023-04-15T00:17:33;99812.25;;;6.29;80.14
69173;BME280;56280;49.662;8.408;2023-04-15T00:19:58;99805.66;;;6.59;78.93
69173;BME280;56280;49.662;8.408;2023-04-15T00:22:25;99775.53;;;6.61;77.49
69173;BME280;56280;49.662;8.408;2023-04-15T00:24:52;99804.59;;;6.72;77.85
69173;BME280;56280;49.662;8.408;2023-04-15T00:27:17;99799.50;;;6.58;77.26
69173;BME280;56280;49.662;8.408;2023-04-15T00:29:42;99779.81;;;6.51;77.48
69173;BME280;56280;49.662;8.408;2023-04-15T00:32:08;99806.63;;;6.69;76.81
69173;BME280;56280;49.662;8.408;2023-04-15T00:34:33;99790.75;;;6.57;77.79
69173;BME280;56280;49.662;8.408;2023-04-15T00:37:01;99773.00;;;6.60;77.79
69173;BME280;56280;49.662;8.408;2023-04-15T00:39:27;99777.13;;;6.75;76.56
69173;BME280;56280;49.662;8.408;2023-04-15T00:41:52;99783.03;;;6.90;75.37
69173;BME280;56280;49.662;8.408;2023-04-15T00:44:18;99778.19;;;6.84;75.21
69173;BME280;56280;49.662;8.408;2023-04-15T00:46:44;99795.28;;;7.02;75.13
69173;BME280;56280;49.662;8.408;2023-04-15T00:49:09;99784.38;;;6.96;75.61
69173;BME280;56280;49.662;8.408;2023-04-15T00:51:35;99786.00;;;6.85;76.07
69173;BME280;56280;49.662;8.408;2023-04-15T00:54:05;99761.25;;;6.52;75.69
69173;BME280;56280;49.662;8.408;2023-04-15T00:56:34;99794.13;;;6.71;75.92
69173;BME280;56280;49.662;8.408;2023-04-15T00:59:00;99778.66;;;6.66;74.99
69173;BME280;56280;49.662;8.408;2023-04-15T01:01:27;99766.16;;;6.46;75.55
69173;BME280;56280;49.662;8.408;2023-04-15T01:03:55;99803.38;;;6.65;74.56
69173;BME280;56280;49.662;8.408;2023-04-15T01:06:20;99780.31;;;6.56;74.13
69173;BME280;56280;49.662;8.408;2023-04-15T01:08:46;99784.41;;;6.60;73.73
69173;BME280;56280;49.662;8.408;2023-04-15T01:11:12;99796.78;;;6.71;73.24
69173;BME280;56280;49.662;8.408;2023-04-15T01:13:37;99764.38;;;6.57;72.95
69173;BME280;56280;49.662;8.408;2023-04-15T01:16:03;99789.34;;;6.76;73.02
69173;BME280;56280;49.662;8.408;2023-04-15T01:18:29;99769.53;;;6.59;72.54
69173;BME280;56280;49.662;8.408;2023-04-15T01:20:54;99789.81;;;6.59;72.55
69173;BME280;56280;49.662;8.408;2023-04-15T01:23:20;99774.44;;;6.52;72.48
69173;BME280;56280;49.662;8.408;2023-04-15T01:25:48;99788.47;;;6.53;72.48
69173;BME280;56280;49.662;8.408;2023-04-15T01:28:14;99782.84;;;6.57;72.55
69173;BME280;56280;49.662;8.408;2023-04-15T01:30:39;99774.22;;;6.55;72.13
69173;BME280;56280;49.662;8.408;2023-04-15T01:33:04;99792.69;;;6.55;73.33
69173;BME280;56280;49.662;8.408;2023-04-15T01:35:30;99776.69;;;6.46;72.84
69173;BME280;56280;49.662;8.408;2023-04-15T01:38:01;99768.03;;;6.44;72.88
69173;BME280;56280;49.662;8.408;2023-04-15T01:40:27;99781.59;;;6.50;72.63
69173;BME280;56280;49.662;8.408;2023-04-15T01:42:53;99776.94;;;6.43;72.62
69173;BME280;56280;49.662;8.408;2023-04-15T01:45:18;99780.41;;;6.43;72.86
69173;BME280;56280;49.662;8.408;2023-04-15T01:47:43;99796.72;;;6.48;72.76
69173;BME280;56280;49.662;8.408;2023-04-15T01:50:09;99787.13;;;6.47;72.31
69173;BME280;56280;49.662;8.408;2023-04-15T01:52:35;99793.59;;;6.43;72.41
69173;BME280;56280;49.662;8.408;2023-04-15T01:55:00;99800.53;;;6.09;73.84
69173;BME280;56280;49.662;8.408;2023-04-15T01:57:26;99799.44;;;6.11;74.25
69173;BME280;56280;49.662;8.408;2023-04-15T01:59:51;99786.97;;;6.13;73.19
69173;BME280;56280;49.662;8.408;2023-04-15T02:02:16;99780.59;;;6.29;72.46
69173;BME280;56280;49.662;8.408;2023-04-15T02:04:41;99758.94;;;6.12;72.79
69173;BME280;56280;49.662;8.408;2023-04-15T02:07:07;99779.56;;;6.07;72.60
69173;BME280;56280;49.662;8.408;2023-04-15T02:09:32;99799.91;;;6.05;72.66
69173;BME280;56280;49.662;8.408;2023-04-15T02:11:58;99796.97;;;5.97;74.02
69173;BME280;56280;49.662;8.408;2023-04-15T02:14:23;99798.06;;;5.44;75.48
69173;BME280;56280;49.662;8.408;2023-04-15T02:16:48;99781.81;;;4.88;77.26
69173;BME280;56280;49.662;8.408;2023-04-15T02:19:14;99791.44;;;5.26;77.99
69173;BME280;56280;49.662;8.408;2023-04-15T02:21:39;99785.00;;;5.43;77.26
69173;BME280;56280;49.662;8.408;2023-04-15T02:24:05;99767.16;;;5.59;76.34
69173;BME280;56280;49.662;8.408;2023-04-15T02:26:30;99775.56;;;5.64;75.83
69173;BME280;56280;49.662;8.408;2023-04-15T02:28:58;99802.69;;;5.78;75.62
69173;BME280;56280;49.662;8.408;2023-04-15T02:31:24;99791.34;;;5.77;74.91
69173;BME280;56280;49.662;8.408;2023-04-15T02:33:50;99770.78;;;5.70;73.99
69173;BME280;56280;49.662;8.408;2023-04-15T02:36:15;99781.72;;;5.76;73.80
69173;BME280;56280;49.662;8.408;2023-04-15T02:38:40;99790.44;;;5.90;73.42
69173;BME280;56280;49.662;8.408;2023-04-15T02:41:08;99801.94;;;5.89;73.15
69173;BME280;56280;49.662;8.408;2023-04-15T02:43:34;99795.03;;;5.75;73.65
69173;BME280;56280;49.662;8.408;2023-04-15T02:45:59;99749.19;;;5.40;73.84
69173;BME280;56280;49.662;8.408;2023-04-15T02:48:25;99794.66;;;5.55;73.54
69173;BME280;56280;49.662;8.408;2023-04-15T02:50:51;99805.09;;;5.57;73.05
69173;BME280;56280;49.662;8.408;2023-04-15T02:53:16;99797.41;;;5.54;72.56
69173;BME280;56280;49.662;8.408;2023-04-15T02:55:41;99796.06;;;5.48;73.00
69173;BME280;56280;49.662;8.408;2023-04-15T02:58:07;99790.91;;;5.46;72.80
69173;BME280;56280;49.662;8.408;2023-04-15T03:00:32;99793.31;;;5.50;72.77
69173;BME280;56280;49.662;8.408;2023-04-15T03:03:02;99801.63;;;5.56;72.64
69173;BME280;56280;49.662;8.408;2023-04-15T03:05:28;99805.53;;;5.51;72.35
69173;BME280;56280;49.662;8.408;2023-04-15T03:07:54;99790.69;;;5.37;72.99
69173;BME280;56280;49.662;8.408;2023-04-15T03:10:19;99811.03;;;5.47;74.09
69173;BME280;56280;49.662;8.408;2023-04-15T03:12:45;99790.38;;;5.41;73.69
69173;BME280;56280;49.662;8.408;2023-04-15T03:15:11;99805.97;;;5.44;73.16
69173;BME280;56280;49.662;8.408;2023-04-15T03:17:36;99810.06;;;5.48;72.83
69173;BME280;56280;49.662;8.408;2023-04-15T03:20:02;99813.31;;;5.52;72.74
69173;BME280;56280;49.662;8.408;2023-04-15T03:22:29;99747.88;;;5.09;72.09
69173;BME280;56280;49.662;8.408;2023-04-15T03:24:55;99808.72;;;5.43;71.58
69173;BME280;56280;49.662;8.408;2023-04-15T03:27:21;99800.41;;;5.36;71.66
69173;BME280;56280;49.662;8.408;2023-04-15T03:29:46;99795.25;;;5.22;72.59
69173;BME280;56280;49.662;8.408;2023-04-15T03:32:11;99809.88;;;5.26;72.84
69173;BME280;56280;49.662;8.408;2023-04-15T03:34:36;99789.56;;;5.02;75.60
69173;BME280;56280;49.662;8.408;2023-04-15T03:37:02;99791.88;;;4.68;77.08
69173;BME280;56280;49.662;8.408;2023-04-15T03:39:27;99819.09;;;3.87;80.58
69173;BME280;56280;49.662;8.408;2023-04-15T03:41:52;99806.84;;;4.00;81.26
69173;BME280;56280;49.662;8.408;2023-04-15T03:44:18;99818.25;;;4.54;80.18
69173;BME280;56280;49.662;8.408;2023-04-15T03:46:43;99814.41;;;4.72;78.84
69173;BME280;56280;49.662;8.408;2023-04-15T03:49:08;99814.31;;;4.87;77.58
69173;BME280;56280;49.662;8.408;2023-04-15T03:51:33;99796.53;;;4.90;76.26
69173;BME280;56280;49.662;8.408;2023-04-15T03:53:59;99790.94;;;4.95;76.01
69173;BME280;56280;49.662;8.408;2023-04-15T03:56:26;99797.25;;;5.05;75.24
69173;BME280;56280;49.662;8.408;2023-04-15T03:58:51;99795.38;;;5.07;74.62
69173;BME280;56280;49.662;8.408;2023-04-15T04:01:17;99817.38;;;5.19;73.99
69173;BME280;56280;49.662;8.408;2023-04-15T04:03:42;99798.53;;;5.13;74.33
69173;BME280;56280;49.662;8.408;2023-04-15T04:06:08;99802.97;;;5.12;73.29
69173;BME280;56280;49.662;8.408;2023-04-15T04:08:34;99807.25;;;5.13;73.29
69173;BME280;56280;49.662;8.408;2023-04-15T04:10:59;99792.00;;;5.05;73.08
69173;BME280;56280;49.662;8.408;2023-04-15T04:13:25;99793.69;;;5.06;73.55
69173;BME280;56280;49.662;8.408;2023-04-15T04:15:50;99813.38;;;5.14;73.80
69173;BME280;56280;49.662;8.408;2023-04-15T04:18:15;99791.88;;;5.07;73.53
69173;BME280;56280;49.662;8.408;2023-04-15T04:20:40;99802.09;;;5.11;73.89
69173;BME280;56280;49.662;8.408;2023-04-15T04:23:06;99814.31;;;5.25;74.16
69173;BME280;56280;49.662;8.408;2023-04-15T04:25:31;99806.00;;;5.19;74.51
69173;BME280;56280;49.662;8.408;2023-04-15T04:27:57;99805.78;;;5.22;74.28
69173;BME280;56280;49.662;8.408;2023-04-15T04:30:22;99802.94;;;5.25;74.18
69173;BME280;56280;49.662;8.408;2023-04-15T04:32:49;99757.25;;;4.74;73.70
69173;BME280;56280;49.662;8.408;2023-04-15T04:35:14;99814.63;;;5.08;73.81
69173;BME280;56280;49.662;8.408;2023-04-15T04:37:40;99820.75;;;5.08;74.90
69173;BME280;56280;49.662;8.408;2023-04-15T04:40:05;99822.22;;;4.07;77.85
69173;BME280;56280;49.662;8.408;2023-04-15T04:42:32;99820.69;;;3.34;81.51
69173;BME280;56280;49.662;8.408;2023-04-15T04:44:57;99814.22;;;3.25;83.74
69173;BME280;56280;49.662;8.408;2023-04-15T04:47:23;99820.19;;;3.97;83.20
69173;BME280;56280;49.662;8.408;2023-04-15T04:49:48;99833.69;;;4.33;81.30
69173;BME280;56280;49.662;8.408;2023-04-15T04:52:13;99816.97;;;4.07;81.20
69173;BME280;56280;49.662;8.408;2023-04-15T04:54:38;99806.66;;;4.04;81.31
69173;BME280;56280;49.662;8.408;2023-04-15T04:57:04;99836.91;;;4.51;81.26
69173;BME280;56280;49.662;8.408;2023-04-15T04:59:29;99839.88;;;4.59;80.08
69173;BME280;56280;49.662;8.408;2023-04-15T05:01:54;99833.97;;;4.68;79.08
69173;BME280;56280;49.662;8.408;2023-04-15T05:04:20;99809.56;;;4.66;78.29
69173;BME280;56280;49.662;8.408;2023-04-15T05:06:45;99843.81;;;4.92;77.61
69173;BME280;56280;49.662;8.408;2023-04-15T05:09:11;99789.13;;;4.70;77.70
69173;BME280;56280;49.662;8.408;2023-04-15T05:11:36;99835.50;;;4.98;76.95
69173;BME280;56280;49.662;8.408;2023-04-15T05:14:01;99806.53;;;4.85;77.11
69173;BME280;56280;49.662;8.408;2023-04-15T05:16:27;99833.06;;;5.08;76.54
69173;BME280;56280;49.662;8.408;2023-04-15T05:18:52;99827.81;;;5.08;76.73
69173;BME280;56280;49.662;8.408;2023-04-15T05:21:18;99834.22;;;5.17;76.41
69173;BME280;56280;49.662;8.408;2023-04-15T05:23:43;99846.34;;;5.32;76.00
69173;BME280;56280;49.662;8.408;2023-04-15T05:26:09;99822.44;;;5.22;75.35
69173;BME280;56280;49.662;8.408;2023-04-15T05:28:34;99813.81;;;5.20;74.77
69173;BME280;56280;49.662;8.408;2023-04-15T05:31:02;99858.66;;;5.57;74.86
69173;BME280;56280;49.662;8.408;2023-04-15T05:33:28;99857.97;;;5.66;74.93
69173;BME280;56280;49.662;8.408;2023-04-15T05:35:53;99860.91;;;5.88;75.46
69173;BME280;56280;49.662;8.408;2023-04-15T05:38:18;99829.66;;;5.94;75.72
69173;BME280;56280;49.662;8.408;2023-04-15T05:40:43;99863.13;;;6.42;75.56
69173;BME280;56280;49.662;8.408;2023-04-15T05:43:09;99835.50;;;6.59;74.72
69173;BME280;56280;49.662;8.408;2023-04-15T05:45:34;99849.63;;;6.93;73.96
69173;BME280;56280;49.662;8.408;2023-04-15T05:48:00;99829.41;;;7.17;72.84
69173;BME280;56280;49.662;8.408;2023-04-15T05:50:25;99848.63;;;7.53;72.59
69173;BME280;56280;49.662;8.408;2023-04-15T05:52:51;99836.47;;;7.73;71.91
69173;BME280;56280;49.662;8.408;2023-04-15T05:55:16;99842.91;;;8.02;70.43
69173;BME280;56280;49.662;8.408;2023-04-15T05:57:41;99830.25;;;8.17;69.96
69173;BME280;56280;49.662;8.408;2023-04-15T06:00:07;99843.72;;;8.58;69.47
69173;BME280;56280;49.662;8.408;2023-04-15T06:02:32;99841.34;;;8.76;68.65
69173;BME280;56280;49.662;8.408;2023-04-15T06:04:57;99837.19;;;9.04;68.16
69173;BME280;56280;49.662;8.408;2023-04-15T06:07:23;99816.91;;;9.45;66.55
69173;BME280;56280;49.662;8.408;2023-04-15T06:09:48;99801.09;;;9.84;64.59
69173;BME280;56280;49.662;8.408;2023-04-15T06:12:14;99830.31;;;9.94;64.65
69173;BME280;56280;49.662;8.408;2023-04-15T06:14:40;99843.06;;;9.29;66.41
69173;BME280;56280;49.662;8.408;2023-04-15T06:17:05;99839.72;;;8.85;67.90
69173;BME280;56280;49.662;8.408;2023-04-15T06:19:31;99841.34;;;8.55;69.55
69173;BME280;56280;49.662;8.408;2023-04-15T06:21:57;99833.34;;;7.56;73.11
69173;BME280;56280;49.662;8.408;2023-04-15T06:24:22;99842.47;;;6.96;74.02
69173;BME280;56280;49.662;8.408;2023-04-15T06:26:47;99867.44;;;7.03;74.69
69173;BME280;56280;49.662;8.408;2023-04-15T06:29:12;99862.41;;;7.22;74.21
69173;BME280;56280;49.662;8.408;2023-04-15T06:31:38;99864.66;;;7.04;75.26
69173;BME280;56280;49.662;8.408;2023-04-15T06:34:03;99869.28;;;7.81;74.04
69173;BME280;56280;49.662;8.408;2023-04-15T06:36:28;99870.09;;;8.37;72.14
69173;BME280;56280;49.662;8.408;2023-04-15T06:38:54;99873.59;;;9.02;72.22
69173;BME280;56280;49.662;8.408;2023-04-15T06:41:21;99865.50;;;9.56;70.94
69173;BME280;56280;49.662;8.408;2023-04-15T06:43:46;99855.16;;;9.93;67.83
69173;BME280;56280;49.662;8.408;2023-04-15T06:46:11;99838.66;;;9.80;67.02
69173;BME280;56280;49.662;8.408;2023-04-15T06:48:37;99873.00;;;9.20;68.63
69173;BME280;56280;49.662;8.408;2023-04-15T06:51:02;99856.06;;;8.90;71.08
69173;BME280;56280;49.662;8.408;2023-04-15T06:53:28;99875.41;;;7.71;73.62
69173;BME280;56280;49.662;8.408;2023-04-15T06:55:53;99871.03;;;7.13;76.39
69173;BME280;56280;49.662;8.408;2023-04-15T06:58:18;99868.69;;;7.55;77.04
69173;BME280;56280;49.662;8.408;2023-04-15T07:00:44;99865.41;;;7.74;76.46
69173;BME280;56280;49.662;8.408;2023-04-15T07:03:11;99886.38;;;8.76;74.70
69173;BME280;56280;49.662;8.408;2023-04-15T07:05:37;99866.84;;;8.01;73.50
69173;BME280;56280;49.662;8.408;2023-04-15T07:08:03;99874.25;;;6.94;76.44
69173;BME280;56280;49.662;8.408;2023-04-15T07:10:28;99883.09;;;6.82;79.20
69173;BME280;56280;49.662;8.408;2023-04-15T07:12:54;99885.94;;;6.67;79.55
69173;BME280;56280;49.662;8.408;2023-04-15T07:15:19;99901.06;;;7.12;79.86
69173;BME280;56280;49.662;8.408;2023-04-15T07:17:44;99896.03;;;7.20;80.23
69173;BME280;56280;49.662;8.408;2023-04-15T07:20:10;99892.97;;;7.49;79.90
69173;BME280;56280;49.662;8.408;2023-04-15T07:22:36;99879.72;;;7.26;79.72
69173;BME280;56280;49.662;8.408;2023-04-15T07:25:02;99877.44;;;8.01;79.92
69173;BME280;56280;49.662;8.408;2023-04-15T07:27:27;99877.09;;;8.38;78.06
69173;BME280;56280;49.662;8.408;2023-04-15T07:29:53;99875.88;;;7.87;79.53
69173;BME280;56280;49.662;8.408;2023-04-15T07:32:18;99889.59;;;7.81;81.57
69173;BME280;56280;49.662;8.408;2023-04-15T07:34:44;99890.53;;;8.02;79.60
69173;BME280;56280;49.662;8.408;2023-04-15T07:37:09;99889.16;;;8.31;79.21
69173;BME280;56280;49.662;8.408;2023-04-15T07:39:35;99864.56;;;7.96;78.68
69173;BME280;56280;49.662;8.408;2023-04-15T07:42:01;99869.56;;;8.22;78.16
69173;BME280;56280;49.662;8.408;2023-04-15T07:44:26;99889.47;;;8.05;79.77
69173;BME280;56280;49.662;8.408;2023-04-15T07:46:52;99896.91;;;8.66;80.12
69173;BME280;56280;49.662;8.408;2023-04-15T07:49:17;99882.59;;;8.57;78.05
69173;BME280;56280;49.662;8.408;2023-04-15T07:51:43;99896.56;;;8.48;79.28
69173;BME280;56280;49.662;8.408;2023-04-15T07:54:09;99823.03;;;8.19;77.60
69173;BME280;56280;49.662;8.408;2023-04-15T07:56:34;99900.13;;;8.70;80.41
69173;BME280;56280;49.662;8.408;2023-04-15T07:58:59;99906.84;;;8.74;81.11
69173;BME280;56280;49.662;8.408;2023-04-15T08:01:26;99906.84;;;8.95;77.78
69173;BME280;56280;49.662;8.408;2023-04-15T08:03:51;99888.19;;;8.97;75.67
69173;BME280;56280;49.662;8.408;2023-04-15T08:06:17;99882.78;;;8.66;75.98
69173;BME280;56280;49.662;8.408;2023-04-15T08:08:42;99896.94;;;8.55;77.03
69173;BME280;56280;49.662;8.408;2023-04-15T08:11:08;99886.56;;;8.63;76.72
69173;BME280;56280;49.662;8.408;2023-04-15T08:13:33;99903.19;;;9.07;78.49
69173;BME280;56280;49.662;8.408;2023-04-15T08:16:20;99906.28;;;9.12;76.78
69173;BME280;56280;49.662;8.408;2023-04-15T08:18:47;99908.75;;;9.25;78.03
69173;BME280;56280;49.662;8.408;2023-04-15T08:21:13;99906.72;;;9.60;76.51
69173;BME280;56280;49.662;8.408;2023-04-15T08:23:39;99907.22;;;9.84;76.79
69173;BME280;56280;49.662;8.408;2023-04-15T08:26:04;99890.47;;;9.84;76.12
69173;BME280;56280;49.662;8.408;2023-04-15T08:28:30;99903.56;;;10.16;72.43
69173;BME280;56280;49.662;8.408;2023-04-15T08:30:56;99875.97;;;10.48;74.00
69173;BME280;56280;49.662;8.408;2023-04-15T08:33:21;99886.88;;;10.35;70.89
69173;BME280;56280;49.662;8.408;2023-04-15T08:35:47;99908.56;;;10.00;70.25
69173;BME280;56280;49.662;8.408;2023-04-15T08:38:13;99884.22;;;10.65;74.82
69173;BME280;56280;49.662;8.408;2023-04-15T08:40:40;99900.16;;;10.55;72.78
69173;BME280;56280;49.662;8.408;2023-04-15T08:43:09;99905.59;;;10.44;71.18
69173;BME280;56280;49.662;8.408;2023-04-15T08:45:37;99884.47;;;10.32;71.63
69173;BME280;56280;49.662;8.408;2023-04-15T08:48:04;99901.97;;;11.03;71.84
69173;BME280;56280;49.662;8.408;2023-04-15T08:50:30;99902.03;;;11.78;73.04
69173;BME280;56280;49.662;8.408;2023-04-15T08:52:58;99884.69;;;11.27;68.11
69173;BME280;56280;49.662;8.408;2023-04-15T08:55:25;99889.94;;;10.50;69.84
69173;BME280;56280;49.662;8.408;2023-04-15T08:57:53;99901.72;;;10.87;69.96
69173;BME280;56280;49.662;8.408;2023-04-15T09:00:20;99876.38;;;10.44;71.77
69173;BME280;56280;49.662;8.408;2023-04-15T09:02:48;99911.19;;;11.09;70.71
69173;BME280;56280;49.662;8.408;2023-04-15T09:05:14;99905.34;;;10.56;69.02
69173;BME280;56280;49.662;8.408;2023-04-15T09:07:40;99915.13;;;10.85;70.07
69173;BME280;56280;49.662;8.408;2023-04-15T09:10:06;99909.38;;;11.09;70.07
69173;BME280;56280;49.662;8.408;2023-04-15T09:12:35;99919.03;;;11.10;70.38
69173;BME280;56280;49.662;8.408;2023-04-15T09:15:01;99920.72;;;11.11;70.13
69173;BME280;56280;49.662;8.408;2023-04-15T09:17:27;99923.81;;;10.87;67.80
69173;BME280;56280;49.662;8.408;2023-04-15T09:20:12;99913.31;;;10.76;71.79
69173;BME280;56280;49.662;8.408;2023-04-15T09:22:42;99916.78;;;11.16;70.53
69173;BME280;56280;49.662;8.408;2023-04-15T09:27:47;99925.44;;;11.27;67.70
69173;BME280;56280;49.662;8.408;2023-04-15T09:30:13;99907.25;;;11.23;67.63
69173;BME280;56280;49.662;8.408;2023-04-15T09:32:48;99922.66;;;11.29;66.93
69173;BME280;56280;49.662;8.408;2023-04-15T09:35:14;99943.78;;;11.30;67.05
69173;BME280;56280;49.662;8.408;2023-04-15T09:37:39;99919.13;;;11.28;67.83
69173;BME280;56280;49.662;8.408;2023-04-15T09:40:05;99932.34;;;11.67;66.79
69173;BME280;56280;49.662;8.408;2023-04-15T09:42:31;99941.81;;;11.23;65.27
69173;BME280;56280;49.662;8.408;2023-04-15T09:45:10;99926.94;;;11.40;68.66
69173;BME280;56280;49.662;8.408;2023-04-15T09:47:36;99927.66;;;11.42;69.08
69173;BME280;56280;49.662;8.408;2023-04-15T09:50:01;99927.94;;;11.39;66.11
69173;BME280;56280;49.662;8.408;2023-04-15T09:52:27;99931.72;;;11.36;67.04
69173;BME280;56280;49.662;8.408;2023-04-15T09:54:53;99944.53;;;11.60;68.78
69173;BME280;56280;49.662;8.408;2023-04-15T09:57:22;99933.50;;;11.55;65.89
69173;BME280;56280;49.662;8.408;2023-04-15T09:59:49;99947.38;;;11.49;65.60
69173;BME280;56280;49.662;8.408;2023-04-15T10:02:15;99946.06;;;12.10;65.26
69173;BME280;56280;49.662;8.408;2023-04-15T10:04:42;99935.16;;;12.31;62.95
69173;BME280;56280;49.662;8.408;2023-04-15T10:07:08;99912.56;;;12.35;63.31
69173;BME280;56280;49.662;8.408;2023-04-15T10:09:37;99949.69;;;12.83;63.55
69173;BME280;56280;49.662;8.408;2023-04-15T10:12:03;99941.97;;;12.80;60.57
69173;BME280;56280;49.662;8.408;2023-04-15T10:14:32;99947.09;;;13.09;60.57
69173;BME280;56280;49.662;8.408;2023-04-15T10:17:02;99952.56;;;12.71;62.08
69173;BME280;56280;49.662;8.408;2023-04-15T10:19:30;99921.47;;;11.98;63.47
69173;BME280;56280;49.662;8.408;2023-04-15T10:21:57;99945.56;;;12.25;64.24
69173;BME280;56280;49.662;8.408;2023-04-15T10:24:23;99948.63;;;12.57;60.95
69173;BME280;56280;49.662;8.408;2023-04-15T10:26:50;99957.22;;;12.51;62.12
69173;BME280;56280;49.662;8.408;2023-04-15T10:29:15;99959.56;;;12.54;61.96
69173;BME280;56280;49.662;8.408;2023-04-15T10:31:41;99935.75;;;12.53;59.29
69173;BME280;56280;49.662;8.408;2023-04-15T10:34:07;99950.44;;;12.75;59.08
69173;BME280;56280;49.662;8.408;2023-04-15T10:36:33;99956.84;;;13.00;59.76
69173;BME280;56280;49.662;8.408;2023-04-15T10:38:58;99966.88;;;13.42;62.28
69173;BME280;56280;49.662;8.408;2023-04-15T10:41:25;99953.72;;;12.87;63.11
69173;BME280;56280;49.662;8.408;2023-04-15T10:44:00;99965.88;;;12.53;58.20
69173;BME280;56280;49.662;8.408;2023-04-15T10:46:43;99973.56;;;12.56;60.42
69173;BME280;56280;49.662;8.408;2023-04-15T10:49:16;99978.06;;;12.56;58.68
69173;BME280;56280;49.662;8.408;2023-04-15T10:51:58;99977.19;;;12.37;59.32
69173;BME280;56280;49.662;8.408;2023-04-15T10:57:13;99988.28;;;12.61;57.90
69173;BME280;56280;49.662;8.408;2023-04-15T10:59:59;99988.44;;;12.59;58.56
69173;BME280;56280;49.662;8.408;2023-04-15T11:05:17;99986.88;;;12.38;59.10
69173;BME280;56280;49.662;8.408;2023-04-15T11:12:45;99985.81;;;12.49;56.84
69173;BME280;56280;49.662;8.408;2023-04-15T11:15:31;99976.19;;;12.66;57.91
69173;BME280;56280;49.662;8.408;2023-04-15T11:20:24;99983.81;;;12.79;57.82
69173;BME280;56280;49.662;8.408;2023-04-15T11:22:51;99983.72;;;12.89;58.37
69173;BME280;56280;49.662;8.408;2023-04-15T11:25:24;99978.94;;;12.92;55.74
69173;BME280;56280;49.662;8.408;2023-04-15T11:27:50;99980.91;;;12.72;55.65
69173;BME280;56280;49.662;8.408;2023-04-15T11:30:18;99979.22;;;12.71;54.69
69173;BME280;56280;49.662;8.408;2023-04-15T11:32:45;99986.16;;;13.00;55.88
69173;BME280;56280;49.662;8.408;2023-04-15T11:35:10;99971.31;;;12.80;54.27
69173;BME280;56280;49.662;8.408;2023-04-15T11:37:35;99976.03;;;13.04;53.13
69173;BME280;56280;49.662;8.408;2023-04-15T11:40:02;99988.31;;;12.79;53.50
69173;BME280;56280;49.662;8.408;2023-04-15T11:42:27;99984.69;;;12.52;52.76
69173;BME280;56280;49.662;8.408;2023-04-15T11:45:12;99986.00;;;12.66;55.40
69173;BME280;56280;49.662;8.408;2023-04-15T11:47:39;100011.41;;;12.60;52.64
69173;BME280;56280;49.662;8.408;2023-04-15T11:50:20;99989.97;;;12.80;55.03
69173;BME280;56280;49.662;8.408;2023-04-15T11:53:00;99984.25;;;12.92;55.57
69173;BME280;56280;49.662;8.408;2023-04-15T11:55:27;99998.28;;;13.12;52.72
69173;BME280;56280;49.662;8.408;2023-04-15T11:58:17;100015.56;;;12.72;46.01
69173;BME280;56280;49.662;8.408;2023-04-15T12:00:59;100013.47;;;12.66;44.79
69173;BME280;56280;49.662;8.408;2023-04-15T12:03:27;100016.38;;;12.73;44.34
69173;BME280;56280;49.662;8.408;2023-04-15T12:06:21;100018.25;;;12.90;43.21
69173;BME280;56280;49.662;8.408;2023-04-15T12:11:43;100009.69;;;12.69;42.53
69173;BME280;56280;49.662;8.408;2023-04-15T12:14:29;99992.47;;;12.81;42.85
69173;BME280;56280;49.662;8.408;2023-04-15T12:17:02;99995.84;;;12.83;46.11
69173;BME280;56280;49.662;8.408;2023-04-15T12:19:30;100012.97;;;12.81;44.70
69173;BME280;56280;49.662;8.408;2023-04-15T12:22:00;100016.63;;;12.80;44.74
69173;BME280;56280;49.662;8.408;2023-04-15T12:24:26;100015.63;;;12.81;43.90
69173;BME280;56280;49.662;8.408;2023-04-15T12:26:56;100017.41;;;13.26;42.76
69173;BME280;56280;49.662;8.408;2023-04-15T12:29:26;100026.84;;;12.84;43.95
69173;BME280;56280;49.662;8.408;2023-04-15T12:32:04;100021.38;;;13.22;45.44
69173;BME280;56280;49.662;8.408;2023-04-15T12:34:35;100034.34;;;13.53;43.37
69173;BME280;56280;49.662;8.408;2023-04-15T12:37:03;100015.94;;;12.95;42.27
69173;BME280;56280;49.662;8.408;2023-04-15T12:39:35;100031.50;;;13.00;42.79
69173;BME280;56280;49.662;8.408;2023-04-15T12:42:02;100047.78;;;12.97;44.16
69173;BME280;56280;49.662;8.408;2023-04-15T12:44:28;100035.44;;;12.78;43.88
69173;BME280;56280;49.662;8.408;2023-04-15T12:46:54;100040.16;;;12.84;45.58
69173;BME280;56280;49.662;8.408;2023-04-15T12:49:20;100042.75;;;12.76;45.66
69173;BME280;56280;49.662;8.408;2023-04-15T12:51:51;100044.19;;;12.70;45.08
69173;BME280;56280;49.662;8.408;2023-04-15T12:54:17;100062.72;;;12.62;45.94
69173;BME280;56280;49.662;8.408;2023-04-15T12:56:45;100068.72;;;12.46;46.35
69173;BME280;56280;49.662;8.408;2023-04-15T12:59:11;100066.63;;;12.40;46.19
69173;BME280;56280;49.662;8.408;2023-04-15T13:01:37;100069.53;;;12.47;49.18
69173;BME280;56280;49.662;8.408;2023-04-15T13:04:03;100083.56;;;12.49;48.06
69173;BME280;56280;49.662;8.408;2023-04-15T13:06:29;100071.25;;;12.38;47.25
69173;BME280;56280;49.662;8.408;2023-04-15T13:08:56;100046.53;;;12.46;48.90
69173;BME280;56280;49.662;8.408;2023-04-15T13:11:22;100058.84;;;12.56;49.34
69173;BME280;56280;49.662;8.408;2023-04-15T13:13:47;100084.81;;;12.54;48.31
69173;BME280;56280;49.662;8.408;2023-04-15T13:16:12;100078.03;;;12.60;49.25
69173;BME280;56280;49.662;8.408;2023-04-15T13:18:38;100082.19;;;12.72;49.87
69173;BME280;56280;49.662;8.408;2023-04-15T13:21:03;100091.81;;;12.83;51.02